Time;durP1;ratioP1;P1;durP2;ratioP2;P2;SDS_P1;SDS_P2;PMS_P1;PMS_P2;Temp;Humidity;BMP_temperature;BMP_pressure;BME280_temperature;BME280_humidity;BME280_pressure;Samples;Min_cycle;Max_cycle;Signal;HPM_P1;HPM_P2
2024/01/09 00:01:43;;;;;;;20.58;8.90;;;;;;;-142.57;100.00;56159.72;4959302;28;20039;-80
2024/01/09 00:04:09;;;;;;;17.83;8.80;;;;;;;-142.57;100.00;56157.69;4976896;28;20035;-78
2024/01/09 00:06:34;;;;;;;15.32;7.72;;;;;;;-142.57;100.00;56165.78;4976614;28;20116;-78
2024/01/09 00:09:00;;;;;;;17.25;7.38;;;;;;;-142.57;100.00;56171.84;4976588;28;20486;-79
2024/01/09 00:11:26;;;;;;;15.73;7.05;;;;;;;-142.57;100.00;56129.41;4976787;28;20069;-77
2024/01/09 00:13:51;;;;;;;17.58;6.95;;;;;;;-142.57;100.00;56093.03;4976947;28;20126;-78
2024/01/09 00:16:17;;;;;;;14.27;6.88;;;;;;;-142.57;100.00;56155.66;4976561;28;20039;-79
2024/01/09 00:18:42;;;;;;;15.45;6.72;;;;;;;-142.57;100.00;56109.19;4959240;28;20162;-78
2024/01/09 00:21:08;;;;;;;15.80;6.40;;;;;;;-142.57;100.00;56127.38;4976504;28;20037;-79
2024/01/09 00:23:33;;;;;;;18.50;6.50;;;;;;;-142.57;100.00;56117.28;4959121;28;20496;-78
2024/01/09 00:26:00;;;;;;;21.58;6.88;;;;;;;-142.57;100.00;56131.44;4976288;28;20093;-79
2024/01/09 00:28:26;;;;;;;16.73;6.75;;;;;;;-142.57;100.00;56137.50;4976339;28;20038;-76
2024/01/09 00:30:52;;;;;;;15.40;6.80;;;;;;;-142.57;100.00;56135.47;4976494;28;20427;-77
2024/01/09 00:33:17;;;;;;;16.73;6.68;;;;;;;-142.57;100.00;56151.63;4976303;28;20058;-78
2024/01/09 00:35:43;;;;;;;15.75;6.78;;;;;;;-142.57;100.00;56155.66;4958821;28;20038;-79
2024/01/09 00:38:10;;;;;;;17.95;6.97;;;;;;;-142.57;100.00;56181.94;4976117;28;20044;-78
2024/01/09 00:40:35;;;;;;;20.73;7.55;;;;;;;-142.57;100.00;56153.66;4976608;28;20039;-77
2024/01/09 00:43:00;;;;;;;13.68;7.03;;;;;;;-142.57;100.00;56133.44;4976202;28;20392;-77
2024/01/09 00:45:26;;;;;;;20.02;7.93;;;;;;;-142.57;100.00;56127.38;4976165;28;20475;-77
2024/01/09 00:47:52;;;;;;;13.55;6.82;;;;;;;-142.57;100.00;56109.19;4976078;28;20038;-78
2024/01/09 00:50:17;;;;;;;14.27;6.22;;;;;;;-142.57;100.00;56145.56;4976210;28;20042;-77
2024/01/09 00:52:43;;;;;;;16.58;7.47;;;;;;;-142.57;100.00;56121.31;4975980;28;20027;-77
2024/01/09 00:55:08;;;;;;;18.67;7.43;;;;;;;-142.57;100.00;56115.25;4976904;28;20130;-79
2024/01/09 00:57:35;;;;;;;16.90;7.70;;;;;;;-142.57;100.00;56095.06;4977267;28;20042;-77
2024/01/09 01:00:01;;;;;;;16.65;7.53;;;;;;;-142.57;100.00;56093.03;4976113;28;20396;-77
2024/01/09 01:02:26;;;;;;;14.68;6.93;;;;;;;-142.57;100.00;56121.31;4958541;28;20043;-79
2024/01/09 01:04:52;;;;;;;15.00;7.75;;;;;;;-142.57;100.00;56121.31;4976053;28;20106;-77
2024/01/09 01:07:17;;;;;;;16.13;7.10;;;;;;;-142.57;100.00;56139.50;4976076;28;20122;-76
2024/01/09 01:09:43;;;;;;;19.75;8.00;;;;;;;-142.57;100.00;56056.66;4975615;28;20050;-77
2024/01/09 01:12:08;;;;;;;17.60;6.95;;;;;;;-142.57;100.00;56064.75;4975530;28;20126;-79
2024/01/09 01:14:34;;;;;;;15.45;7.15;;;;;;;-142.57;100.00;56093.03;4975206;28;20065;-79
2024/01/09 01:16:59;;;;;;;13.38;6.55;;;;;;;-142.57;100.00;56103.13;4957383;28;20031;-77
2024/01/09 01:19:25;;;;;;;16.77;7.45;;;;;;;-142.57;100.00;56097.06;4966148;28;20500;-78
2024/01/09 01:21:50;;;;;;;20.48;7.20;;;;;;;-142.57;100.00;56068.78;4946049;28;20444;-77
2024/01/09 01:24:16;;;;;;;14.95;7.35;;;;;;;-142.57;100.00;56074.84;4946737;29;20035;-77
2024/01/09 01:26:41;;;;;;;11.57;6.82;;;;;;;-142.57;100.00;56064.75;4964891;28;20038;-79
2024/01/09 01:29:07;;;;;;;17.50;7.30;;;;;;;-142.57;100.00;56048.56;4964789;28;20072;-80
2024/01/09 01:31:32;;;;;;;12.85;6.50;;;;;;;-142.57;100.00;56062.72;4964464;28;20473;-79
2024/01/09 01:33:58;;;;;;;16.13;6.90;;;;;;;-142.57;100.00;56062.72;4964382;28;20027;-77
2024/01/09 01:36:23;;;;;;;15.63;6.97;;;;;;;-142.57;100.00;56113.25;4967447;28;20031;-77
2024/01/09 01:38:49;;;;;;;15.73;6.90;;;;;;;-142.57;100.00;56169.81;4952990;28;20081;-76
2024/01/09 01:41:14;;;;;;;15.73;7.25;;;;;;;-142.57;100.00;56101.13;4981999;28;21374;-78
2024/01/09 01:43:40;;;;;;;17.90;7.30;;;;;;;-142.57;100.00;56129.41;4969772;28;20129;-77
2024/01/09 01:46:06;;;;;;;15.38;6.32;;;;;;;-142.57;100.00;56131.44;4966772;28;20551;-77
2024/01/09 01:48:33;;;;;;;13.88;6.38;;;;;;;-142.57;100.00;56121.31;4968082;28;20039;-80
2024/01/09 01:50:59;;;;;;;18.15;6.30;;;;;;;-142.57;100.00;56161.72;4964348;28;20106;-78
2024/01/09 01:53:26;;;;;;;16.73;6.25;;;;;;;-142.57;100.00;56165.78;4968499;28;20544;-77
2024/01/09 01:55:52;;;;;;;14.23;6.70;;;;;;;-142.57;100.00;56137.50;4965143;28;20045;-78
2024/01/09 01:58:19;;;;;;;17.75;5.75;;;;;;;-142.57;100.00;56105.16;4963211;28;20540;-78
2024/01/09 02:00:44;;;;;;;15.35;6.03;;;;;;;-142.57;100.00;56139.50;4964007;28;20041;-79
2024/01/09 02:03:12;;;;;;;13.48;5.88;;;;;;;-142.57;100.00;56145.56;4967051;28;20019;-78
2024/01/09 02:05:39;;;;;;;13.32;5.53;;;;;;;-142.57;100.00;56129.41;4977812;28;20090;-80
2024/01/09 02:08:05;;;;;;;14.20;6.20;;;;;;;-142.57;100.00;56121.31;4955871;28;20047;-84
2024/01/09 02:10:31;;;;;;;15.40;7.20;;;;;;;-142.57;100.00;56129.41;4972535;28;20039;-83
2024/01/09 02:12:56;;;;;;;12.80;6.25;;;;;;;-142.57;100.00;56113.25;4953497;29;20028;-87
2024/01/09 02:15:22;;;;;;;12.27;6.35;;;;;;;-142.57;100.00;56153.66;4966507;28;20031;-87
2024/01/09 02:17:47;;;;;;;10.52;5.45;;;;;;;-142.57;100.00;56206.19;4969453;28;20026;-87
2024/01/09 02:20:13;;;;;;;13.02;5.93;;;;;;;-142.57;100.00;56181.94;4971481;28;20377;-84
2024/01/09 02:22:40;;;;;;;14.55;6.05;;;;;;;-142.57;100.00;56165.78;4966621;28;20106;-85
2024/01/09 02:25:08;;;;;;;18.48;6.18;;;;;;;-142.57;100.00;56181.94;4971703;28;20066;-80
2024/01/09 02:27:58;;;;;;;16.67;6.28;;;;;;;-142.57;100.00;56129.41;4979802;28;20039;-89
2024/01/09 02:31:03;;;;;;;18.92;5.82;;;;;;;-142.57;100.00;56125.38;4977234;28;20050;-85
2024/01/09 02:33:29;;;;;;;13.98;6.47;;;;;;;-142.57;100.00;56141.53;4959237;29;20019;-79
2024/01/09 02:35:54;;;;;;;12.63;6.03;;;;;;;-142.57;100.00;56137.50;4979060;28;20031;-85
2024/01/09 02:38:20;;;;;;;15.90;7.35;;;;;;;-142.57;100.00;56171.84;4978020;29;20047;-83
2024/01/09 02:40:46;;;;;;;16.02;6.95;;;;;;;-142.57;100.00;56196.09;4968220;29;20510;-89
2024/01/09 02:43:11;;;;;;;13.57;5.90;;;;;;;-142.57;100.00;56169.81;4946228;29;20168;-89
2024/01/09 02:45:37;;;;;;;13.68;6.03;;;;;;;-142.57;100.00;56202.16;4962816;29;20047;-84
2024/01/09 02:48:03;;;;;;;16.85;6.57;;;;;;;-142.57;100.00;56147.59;4960761;29;20473;-89
2024/01/09 02:50:28;;;;;;;10.98;5.80;;;;;;;-142.57;100.00;56179.91;4960418;29;20055;-89
2024/01/09 02:52:57;;;;;;;17.02;6.15;;;;;;;-142.57;100.00;56129.41;4959934;29;20456;-83
2024/01/09 02:55:22;;;;;;;11.70;6.18;;;;;;;-142.57;100.00;56141.53;4957917;29;20031;-84
2024/01/09 02:57:48;;;;;;;12.07;6.28;;;;;;;-142.57;100.00;56173.84;4957461;29;20046;-81
2024/01/09 03:00:13;;;;;;;15.00;5.88;;;;;;;-142.57;100.00;56175.88;4957880;29;20023;-86
2024/01/09 03:02:39;;;;;;;10.50;5.15;;;;;;;-142.57;100.00;56234.47;4941305;29;20059;-86
2024/01/09 03:05:07;;;;;;;13.90;5.95;;;;;;;-142.57;100.00;56161.72;4958833;29;20492;-88
2024/01/09 03:07:33;;;;;;;15.63;5.70;;;;;;;-142.57;100.00;56181.94;4957294;29;20035;-84
2024/01/09 03:09:59;;;;;;;11.30;5.35;;;;;;;-142.57;100.00;56173.84;4958301;29;20170;-82
2024/01/09 03:12:25;;;;;;;23.17;6.20;;;;;;;-142.57;100.00;56214.28;4956480;29;20035;-83
2024/01/09 03:14:50;;;;;;;15.45;6.13;;;;;;;-142.57;100.00;56246.59;4957324;29;20034;-88
2024/01/09 03:17:16;;;;;;;10.45;5.20;;;;;;;-142.57;100.00;56167.78;4956985;29;20560;-83
2024/01/09 03:19:44;;;;;;;15.50;6.15;;;;;;;-142.57;100.00;56230.44;4938770;29;20046;-84
2024/01/09 03:22:09;;;;;;;15.38;6.30;;;;;;;-142.57;100.00;56250.66;4956013;29;20028;-81
2024/01/09 03:24:35;;;;;;;14.73;6.57;;;;;;;-142.57;100.00;56208.22;4956359;29;20058;-83
2024/01/09 03:27:02;;;;;;;19.67;6.72;;;;;;;-142.57;100.00;56173.84;4956391;29;20493;-86
2024/01/09 03:29:27;;;;;;;19.67;5.88;;;;;;;-142.57;100.00;56250.66;4938138;29;20171;-85
2024/01/09 03:31:54;;;;;;;16.00;5.88;;;;;;;-142.57;100.00;56232.47;4938043;29;20051;-82
2024/01/09 03:34:19;;;;;;;20.27;5.40;;;;;;;-142.57;100.00;56230.44;4955836;29;20045;-85
2024/01/09 03:36:45;;;;;;;15.00;5.50;;;;;;;-142.57;100.00;56200.13;4955458;29;20031;-85
2024/01/09 03:39:14;;;;;;;13.32;5.70;;;;;;;-142.57;100.00;56234.47;4955520;29;20389;-76
2024/01/09 03:41:41;;;;;;;11.20;5.25;;;;;;;-142.57;100.00;56208.22;4937439;29;20043;-78
2024/01/09 03:44:07;;;;;;;13.40;6.35;;;;;;;-142.57;100.00;56216.28;4972527;28;20039;-75
2024/01/09 03:46:32;;;;;;;12.18;5.25;;;;;;;-142.57;100.00;56252.66;4972977;28;20035;-77
2024/01/09 03:48:58;;;;;;;16.25;5.75;;;;;;;-142.57;100.00;56285.00;4973015;28;20488;-78
2024/01/09 03:51:23;;;;;;;14.95;5.53;;;;;;;-142.57;100.00;56234.47;4973705;28;20109;-75
2024/01/09 03:53:49;;;;;;;13.40;4.97;;;;;;;-142.57;100.00;56210.22;4973513;28;20480;-76
2024/01/09 03:56:14;;;;;;;16.42;5.38;;;;;;;-142.57;100.00;56157.69;4974329;28;20062;-78
2024/01/09 03:58:40;;;;;;;14.68;5.30;;;;;;;-142.57;100.00;56200.13;4973177;28;20062;-78
2024/01/09 04:01:05;;;;;;;10.82;5.70;;;;;;;-142.57;100.00;56196.09;4973161;28;20071;-78
2024/01/09 04:03:30;;;;;;;17.50;6.03;;;;;;;-142.57;100.00;56212.25;4956405;28;20058;-76
2024/01/09 04:05:56;;;;;;;15.82;5.97;;;;;;;-142.57;100.00;56194.06;4973140;28;20031;-79
2024/01/09 04:08:24;;;;;;;19.00;6.15;;;;;;;-142.57;100.00;56202.16;4974320;28;20486;-80
2024/01/09 04:10:50;;;;;;;18.60;6.32;;;;;;;-142.57;100.00;56153.66;4973516;28;20126;-78
2024/01/09 04:13:15;;;;;;;13.43;6.13;;;;;;;-142.57;100.00;56157.69;4956084;28;20506;-78
2024/01/09 04:15:41;;;;;;;14.73;6.18;;;;;;;-142.57;100.00;56107.19;4978846;28;20421;-78
2024/01/09 04:18:07;;;;;;;14.15;6.30;;;;;;;-142.57;100.00;56192.03;4983480;28;20038;-77
2024/01/09 04:20:32;;;;;;;14.55;6.40;;;;;;;-142.57;100.00;56179.91;4984981;28;20046;-75
2024/01/09 04:22:58;;;;;;;18.52;5.97;;;;;;;-142.57;100.00;56185.97;4987540;28;20030;-78
2024/01/09 04:25:23;;;;;;;15.68;6.82;;;;;;;-142.57;100.00;56163.75;4987558;28;20026;-78
2024/01/09 04:27:49;;;;;;;21.30;6.60;;;;;;;-142.57;100.00;56210.22;4986054;28;20117;-76
2024/01/09 04:30:14;;;;;;;17.70;7.30;;;;;;;-142.57;100.00;56200.13;4985727;28;20039;-75
2024/01/09 04:32:40;;;;;;;16.38;6.88;;;;;;;-142.57;100.00;56183.97;4985140;28;20045;-77
2024/01/09 04:35:05;;;;;;;17.35;7.88;;;;;;;-142.57;100.00;56155.66;4985073;28;20043;-78
2024/01/09 04:37:31;;;;;;;15.85;7.25;;;;;;;-142.57;100.00;56173.84;4979534;28;20520;-77
2024/01/09 04:39:56;;;;;;;19.70;7.07;;;;;;;-142.57;100.00;56206.19;4977257;28;20050;-76
2024/01/09 04:42:22;;;;;;;20.17;7.07;;;;;;;-142.57;100.00;56133.44;4977686;28;20084;-75
2024/01/09 04:44:47;;;;;;;15.40;7.47;;;;;;;-142.57;100.00;56161.72;4977838;28;20031;-76
2024/01/09 04:47:15;;;;;;;15.43;8.00;;;;;;;-142.57;100.00;56133.44;4979222;28;20404;-75
2024/01/09 04:49:44;;;;;;;23.33;9.05;;;;;;;-142.57;100.00;56133.44;4979726;28;20027;-76
2024/01/09 04:52:10;;;;;;;17.08;8.32;;;;;;;-142.57;100.00;56137.50;4978993;28;20045;-76
2024/01/09 04:54:36;;;;;;;27.23;8.57;;;;;;;-142.57;100.00;56149.63;4978628;28;20117;-76
2024/01/09 04:57:01;;;;;;;18.70;8.27;;;;;;;-142.57;100.00;56141.53;4978483;28;20049;-77
2024/01/09 04:59:27;;;;;;;20.92;8.65;;;;;;;-142.57;100.00;56149.63;4978530;28;20045;-75
2024/01/09 05:01:52;;;;;;;21.10;8.00;;;;;;;-142.57;100.00;56097.06;4980365;28;20026;-77
2024/01/09 05:04:18;;;;;;;19.15;9.18;;;;;;;-142.57;100.00;56109.19;4963711;28;20074;-79
2024/01/09 05:06:44;;;;;;;25.95;8.50;;;;;;;-142.57;100.00;56076.88;4980202;28;20050;-78
2024/01/09 05:09:09;;;;;;;16.92;8.07;;;;;;;-142.57;100.00;56091.00;4979562;28;20054;-78
2024/01/09 05:11:35;;;;;;;23.45;9.27;;;;;;;-142.57;100.00;56056.66;4979516;28;20093;-77
2024/01/09 05:14:01;;;;;;;17.25;8.35;;;;;;;-142.57;100.00;56060.69;4981078;28;20034;-77
2024/01/09 05:16:27;;;;;;;17.27;9.10;;;;;;;-142.57;100.00;56050.59;4981207;28;20454;-79
2024/01/09 05:18:53;;;;;;;21.08;9.98;;;;;;;-142.57;100.00;56044.53;4982353;28;20543;-77
2024/01/09 05:21:19;;;;;;;19.33;9.60;;;;;;;-142.57;100.00;56036.44;4978081;28;20066;-76
2024/01/09 05:23:44;;;;;;;21.50;10.25;;;;;;;-142.57;100.00;56032.41;4976044;28;20035;-76
2024/01/09 05:26:10;;;;;;;27.35;10.35;;;;;;;-142.57;100.00;56038.47;4978761;28;20045;-78
2024/01/09 05:28:35;;;;;;;21.38;10.02;;;;;;;-142.57;100.00;56038.47;4985883;28;20043;-75
2024/01/09 05:31:02;;;;;;;24.40;9.60;;;;;;;-142.57;100.00;56036.44;4974704;28;20034;-75
2024/01/09 05:33:27;;;;;;;27.33;9.52;;;;;;;-142.57;100.00;56018.25;4974224;28;20059;-77
2024/01/09 05:35:53;;;;;;;18.38;8.55;;;;;;;-142.57;100.00;56044.53;4974386;28;20081;-78
2024/01/09 05:38:19;;;;;;;20.13;10.13;;;;;;;-142.57;100.00;56016.25;4974943;28;20065;-80
2024/01/09 05:40:44;;;;;;;18.45;10.25;;;;;;;-142.57;100.00;56048.56;4975347;28;20054;-75
2024/01/09 05:43:09;;;;;;;19.73;9.10;;;;;;;-142.57;100.00;56052.63;4974815;28;20487;-76
2024/01/09 05:45:35;;;;;;;20.75;9.88;;;;;;;-142.57;100.00;56050.59;4974821;28;20123;-75
2024/01/09 05:48:01;;;;;;;20.40;9.60;;;;;;;-142.57;100.00;56026.34;4974967;28;20034;-73
2024/01/09 05:50:26;;;;;;;19.55;11.05;;;;;;;-142.57;100.00;56028.38;4974543;28;20376;-79
2024/01/09 05:52:52;;;;;;;28.65;10.18;;;;;;;-142.57;100.00;56103.13;4974718;28;20050;-76
2024/01/09 05:55:17;;;;;;;25.42;11.13;;;;;;;-142.57;100.00;56010.19;4974714;28;20384;-77
2024/01/09 05:57:43;;;;;;;25.52;9.63;;;;;;;-142.57;100.00;56008.16;4974683;28;20089;-77
2024/01/09 06:00:09;;;;;;;21.80;9.52;;;;;;;-142.57;100.00;56052.63;4973696;28;20030;-79
2024/01/09 06:02:35;;;;;;;27.02;10.30;;;;;;;-142.57;100.00;56028.38;4974965;28;20121;-79
2024/01/09 06:05:00;;;;;;;21.85;10.15;;;;;;;-142.57;100.00;56060.69;4974482;28;20042;-77
2024/01/09 06:07:26;;;;;;;20.50;10.27;;;;;;;-142.57;100.00;56072.81;4974432;28;20034;-74
2024/01/09 06:09:51;;;;;;;21.25;10.57;;;;;;;-142.57;100.00;56012.19;4974325;28;20047;-75
2024/01/09 06:12:17;;;;;;;23.85;10.07;;;;;;;-142.57;100.00;56062.72;4974334;28;20062;-78
2024/01/09 06:14:42;;;;;;;19.90;10.48;;;;;;;-142.57;100.00;56012.19;4974246;28;20018;-79
2024/01/09 06:17:08;;;;;;;20.08;9.75;;;;;;;-142.57;100.00;56016.25;4975052;28;20094;-81
2024/01/09 06:19:35;;;;;;;24.58;11.10;;;;;;;-142.57;100.00;56022.31;4974314;28;20114;-75
2024/01/09 06:22:00;;;;;;;34.42;13.63;;;;;;;-142.57;100.00;56006.13;4974110;28;20476;-76
2024/01/09 06:24:25;;;;;;;24.73;10.25;;;;;;;-142.57;100.00;56024.31;4974197;28;20038;-77
2024/01/09 06:26:51;;;;;;;28.30;10.70;;;;;;;-142.57;100.00;55983.91;4974190;28;20119;-75
2024/01/09 06:29:17;;;;;;;28.80;10.80;;;;;;;-142.57;100.00;55987.94;4974138;28;20443;-80
2024/01/09 06:31:43;;;;;;;19.42;10.13;;;;;;;-142.57;100.00;56004.13;4974219;28;20049;-77
2024/01/09 06:34:08;;;;;;;27.52;9.68;;;;;;;-142.57;100.00;56010.19;4974372;28;20046;-81
2024/01/09 06:36:34;;;;;;;17.48;9.65;;;;;;;-142.57;100.00;56040.50;4973813;28;20117;-77
2024/01/09 06:38:59;;;;;;;26.20;9.75;;;;;;;-142.57;100.00;56024.31;4973986;28;20127;-76
2024/01/09 06:41:25;;;;;;;26.48;10.60;;;;;;;-142.57;100.00;56012.19;4972897;28;20107;-73
2024/01/09 06:43:50;;;;;;;25.48;11.18;;;;;;;-142.57;100.00;55975.84;4974308;28;20039;-79
2024/01/09 06:46:16;;;;;;;26.75;10.82;;;;;;;-142.57;100.00;55992.00;4973939;28;20038;-77
2024/01/09 06:48:42;;;;;;;21.05;10.82;;;;;;;-142.57;100.00;55971.78;4973662;28;20125;-80
2024/01/09 06:51:07;;;;;;;17.75;9.98;;;;;;;-142.57;100.00;56002.09;4972521;28;20133;-79
2024/01/09 06:53:33;;;;;;;26.77;10.93;;;;;;;-142.57;100.00;56008.16;4973751;28;20130;-77
2024/01/09 06:55:58;;;;;;;20.80;10.15;;;;;;;-142.57;100.00;55965.72;4973819;28;20068;-78
2024/01/09 06:58:24;;;;;;;22.50;11.20;;;;;;;-142.57;100.00;55953.59;4973626;28;20038;-79
2024/01/09 07:00:50;;;;;;;26.65;9.70;;;;;;;-142.57;100.00;56002.09;4974276;28;20445;-77
2024/01/09 07:03:16;;;;;;;23.55;10.32;;;;;;;-142.57;100.00;55992.00;4973609;28;20448;-78
2024/01/09 07:05:42;;;;;;;21.70;10.65;;;;;;;-142.57;100.00;55951.59;4973623;28;20039;-76
2024/01/09 07:08:08;;;;;;;28.50;11.23;;;;;;;-142.57;100.00;55983.91;4974052;28;20077;-79
2024/01/09 07:10:34;;;;;;;27.38;10.50;;;;;;;-142.57;100.00;55959.66;4973572;28;20047;-79
2024/01/09 07:13:00;;;;;;;26.80;9.80;;;;;;;-142.57;100.00;56018.25;4970567;28;20047;-77
2024/01/09 07:15:25;;;;;;;21.63;10.50;;;;;;;-142.57;100.00;56008.16;4972763;28;20027;-78
2024/01/09 07:17:51;;;;;;;17.42;9.68;;;;;;;-142.57;100.00;55979.88;4973370;28;20035;-77
2024/01/09 07:20:17;;;;;;;18.92;8.68;;;;;;;-142.57;100.00;55983.91;4973667;28;20097;-78
2024/01/09 07:22:42;;;;;;;28.13;9.57;;;;;;;-142.57;100.00;55975.84;4973658;28;20035;-77
2024/01/09 07:25:10;;;;;;;25.20;9.10;;;;;;;-142.57;100.00;55949.56;4973645;28;20400;-77
2024/01/09 07:27:36;;;;;;;23.10;8.90;;;;;;;-142.57;100.00;55975.84;4973952;28;20066;-78
2024/01/09 07:30:02;;;;;;;19.15;7.85;;;;;;;-142.57;100.00;55935.41;4973324;28;20081;-78
2024/01/09 07:32:28;;;;;;;18.83;9.05;;;;;;;-142.57;100.00;55888.94;4956011;28;20476;-82
2024/01/09 07:34:54;;;;;;;24.33;8.95;;;;;;;-142.57;100.00;55911.16;4973334;28;20066;-78
2024/01/09 07:37:19;;;;;;;26.73;9.55;;;;;;;-142.57;100.00;55864.69;4956276;28;20027;-77
2024/01/09 07:39:45;;;;;;;18.15;8.02;;;;;;;-142.57;100.00;55939.47;4974019;28;20039;-79
2024/01/09 07:42:13;;;;;;;21.67;8.73;;;;;;;-142.57;100.00;55911.16;4974456;28;20109;-77
2024/01/09 07:44:39;;;;;;;25.83;9.13;;;;;;;-142.57;100.00;55886.91;4974162;28;20037;-79
2024/01/09 07:47:07;;;;;;;21.00;8.93;;;;;;;-142.57;100.00;55911.16;4974664;28;20038;-78
2024/01/09 07:49:34;;;;;;;26.30;8.60;;;;;;;-142.57;100.00;55897.03;4974256;28;20104;-78
2024/01/09 07:51:59;;;;;;;19.02;8.70;;;;;;;-142.57;100.00;55923.28;4975073;28;20031;-78
2024/01/09 07:54:25;;;;;;;24.00;8.32;;;;;;;-142.57;100.00;55923.28;4974296;28;20038;-77
2024/01/09 07:56:50;;;;;;;18.67;8.40;;;;;;;-142.57;100.00;55935.41;4976363;28;20109;-78
2024/01/09 07:59:16;;;;;;;27.38;8.93;;;;;;;-142.57;100.00;55935.41;4972402;28;20030;-76
2024/01/09 08:01:42;;;;;;;25.80;7.97;;;;;;;-142.57;100.00;55949.56;4971352;28;20039;-76
2024/01/09 08:04:07;;;;;;;20.95;9.10;;;;;;;-142.57;100.00;55967.75;4957829;29;20046;-78
2024/01/09 08:06:33;;;;;;;19.33;8.32;;;;;;;-142.57;100.00;55963.72;4940585;29;20035;-76
2024/01/09 08:08:58;;;;;;;31.10;9.73;;;;;;;-142.57;100.00;55951.59;4957078;29;20122;-77
2024/01/09 08:11:24;;;;;;;25.60;7.75;;;;;;;-142.57;100.00;55951.59;4958000;29;20358;-80
2024/01/09 08:13:50;;;;;;;15.90;8.25;;;;;;;-142.57;100.00;55939.47;4957947;29;20044;-79
2024/01/09 08:16:16;;;;;;;18.98;8.38;;;;;;;-142.57;100.00;55996.03;4957783;29;20117;-79
2024/01/09 08:18:41;;;;;;;20.73;8.18;;;;;;;-142.57;100.00;55941.47;4968834;28;20051;-81
2024/01/09 08:21:07;;;;;;;19.80;8.02;;;;;;;-142.57;100.00;55951.59;4976626;28;20042;-77
2024/01/09 08:23:32;;;;;;;21.98;9.75;;;;;;;-142.57;100.00;55955.63;4977739;28;20027;-77
2024/01/09 08:25:58;;;;;;;16.75;8.18;;;;;;;-142.57;100.00;55969.78;4979443;28;20039;-76
2024/01/09 08:28:24;;;;;;;15.40;8.23;;;;;;;-142.57;100.00;55927.34;4979539;28;20042;-77
2024/01/09 08:30:53;;;;;;;21.98;7.78;;;;;;;-142.57;100.00;55963.72;4959562;28;20074;-76
2024/01/09 08:33:19;;;;;;;38.75;10.90;;;;;;;-142.57;100.00;55931.38;4976214;28;20046;-77
2024/01/09 08:35:49;;;;;;;19.98;8.88;;;;;;;-142.57;100.00;55927.34;4959146;28;20093;-77
2024/01/09 08:38:16;;;;;;;22.58;8.77;;;;;;;-142.57;100.00;55969.78;4975832;28;20047;-77
2024/01/09 08:40:42;;;;;;;21.30;9.25;;;;;;;-142.57;100.00;55955.63;4958577;28;20039;-77
2024/01/09 08:43:07;;;;;;;30.80;8.55;;;;;;;-142.57;100.00;55996.03;4975968;28;20122;-78
2024/01/09 08:45:33;;;;;;;21.30;8.40;;;;;;;-142.57;100.00;56008.16;4975968;28;20046;-78
2024/01/09 08:47:59;;;;;;;24.77;9.52;;;;;;;-142.57;100.00;55998.06;4975998;28;20039;-77
2024/01/09 08:50:24;;;;;;;38.72;8.65;;;;;;;-142.57;100.00;56068.78;4976378;28;20047;-78
2024/01/09 08:52:51;;;;;;;24.13;8.48;;;;;;;-142.57;100.00;56084.94;4976073;28;20035;-80
2024/01/09 08:55:17;;;;;;;23.88;8.85;;;;;;;-142.57;100.00;56020.28;4986314;28;20035;-80
2024/01/09 08:57:43;;;;;;;31.02;8.88;;;;;;;-142.57;100.00;56004.13;4995352;28;20034;-77
2024/01/09 09:00:09;;;;;;;25.00;8.70;;;;;;;-142.57;100.00;56072.81;4977918;28;20026;-80
2024/01/09 09:02:35;;;;;;;22.63;8.20;;;;;;;-142.57;100.00;56070.81;4995166;28;20039;-77
2024/01/09 09:05:00;;;;;;;29.25;8.20;;;;;;;-142.57;100.00;56093.03;4995211;28;20117;-80
2024/01/09 09:07:26;;;;;;;20.05;7.35;;;;;;;-142.57;100.00;56093.03;4994346;28;20038;-77
2024/01/09 09:09:52;;;;;;;26.92;7.72;;;;;;;-142.57;100.00;56070.81;4995722;28;20084;-77
2024/01/09 09:12:17;;;;;;;14.38;6.75;;;;;;;-142.57;100.00;56070.81;4995312;28;20062;-78
2024/01/09 09:14:43;;;;;;;21.73;7.47;;;;;;;-142.57;100.00;56109.19;4994997;28;20495;-78
2024/01/09 09:17:10;;;;;;;18.80;6.85;;;;;;;-142.57;100.00;56105.16;4995128;28;20034;-77
2024/01/09 09:19:36;;;;;;;17.33;7.20;;;;;;;-142.57;100.00;56068.78;4994726;28;20491;-78
2024/01/09 09:22:04;;;;;;;18.25;7.20;;;;;;;-142.57;100.00;56024.31;4994773;28;20080;-79
2024/01/09 09:24:30;;;;;;;22.27;8.40;;;;;;;-142.57;100.00;56084.94;4994621;28;20042;-79
2024/01/09 09:26:55;;;;;;;27.20;9.65;;;;;;;-142.57;100.00;56097.06;4961152;28;20039;-78
2024/01/09 09:29:21;;;;;;;25.98;7.65;;;;;;;-142.57;100.00;56147.59;4994451;28;20679;-79
2024/01/09 09:31:46;;;;;;;14.55;6.78;;;;;;;-142.57;100.00;56198.09;4971600;28;20039;-77
2024/01/09 09:34:12;;;;;;;30.98;7.20;;;;;;;-142.57;100.00;56190.03;4955590;29;20046;-77
2024/01/09 09:36:37;;;;;;;19.15;7.25;;;;;;;-142.57;100.00;56147.59;4958383;28;20380;-77
2024/01/09 09:39:03;;;;;;;19.58;6.40;;;;;;;-142.57;100.00;56169.81;4963764;28;20027;-77
2024/01/09 09:41:31;;;;;;;15.80;6.63;;;;;;;-142.57;100.00;56117.28;4962294;28;20058;-79
2024/01/09 09:43:58;;;;;;;20.38;8.70;;;;;;;-142.57;100.00;56153.66;4967705;28;20122;-79
2024/01/09 09:46:32;;;;;;;27.83;6.88;;;;;;;-142.57;100.00;56228.41;4963888;28;20059;-78
2024/01/09 09:48:59;;;;;;;20.33;7.18;;;;;;;-142.57;100.00;56198.09;4963135;28;20047;-79
2024/01/09 09:51:25;;;;;;;16.20;6.60;;;;;;;-142.57;100.00;56214.28;4965120;28;20520;-79
2024/01/09 09:53:53;;;;;;;14.13;6.45;;;;;;;-142.57;100.00;56262.78;4966733;28;20043;-77
2024/01/09 09:56:18;;;;;;;17.10;6.15;;;;;;;-142.57;100.00;56270.84;4945453;28;20031;-79
2024/01/09 09:58:44;;;;;;;12.80;5.47;;;;;;;-142.57;100.00;56246.59;4964371;28;20041;-79
2024/01/09 10:01:14;;;;;;;16.05;6.97;;;;;;;-142.57;100.00;56196.09;4972363;28;20073;-79
2024/01/09 10:03:44;;;;;;;14.15;5.93;;;;;;;-142.57;100.00;56210.22;4962616;28;20140;-84
2024/01/09 10:06:11;;;;;;;18.23;7.18;;;;;;;-142.57;100.00;56280.97;4975973;28;20396;-84
2024/01/09 10:08:38;;;;;;;16.08;6.18;;;;;;;-142.57;100.00;56317.34;4975524;28;20094;-85
2024/01/09 10:11:05;;;;;;;14.25;6.70;;;;;;;-142.57;100.00;56270.84;4970278;28;20077;-86
2024/01/09 10:13:31;;;;;;;20.73;6.38;;;;;;;-142.57;100.00;56246.59;4963607;28;20039;-85
2024/01/09 10:16:01;;;;;;;21.30;5.72;;;;;;;-142.57;100.00;56214.28;4962855;28;20130;-86
2024/01/09 10:18:31;;;;;;;14.95;5.82;;;;;;;-142.57;100.00;56194.06;4971602;28;20436;-86
2024/01/09 10:21:00;;;;;;;20.98;5.65;;;;;;;-142.57;100.00;56143.56;4968316;28;20089;-86
2024/01/09 10:23:26;;;;;;;16.17;5.10;;;;;;;-142.57;100.00;56143.56;4966690;28;20019;-86
2024/01/09 10:26:00;;;;;;;11.43;5.35;;;;;;;-142.57;100.00;56183.97;4972529;28;20039;-86
2024/01/09 10:28:26;;;;;;;15.27;6.53;;;;;;;-142.57;100.00;56153.66;4972794;28;20105;-87
2024/01/09 10:30:52;;;;;;;19.55;7.63;;;;;;;-142.57;100.00;56206.19;4974868;28;20122;-87
2024/01/09 10:33:18;;;;;;;17.75;6.13;;;;;;;-142.57;100.00;56214.28;4970487;28;20031;-86
2024/01/09 10:35:44;;;;;;;12.68;6.47;;;;;;;-142.57;100.00;56206.19;4971041;28;20114;-87
2024/01/09 10:38:10;;;;;;;34.22;7.95;;;;;;;-142.57;100.00;56242.56;4975243;28;20074;-84
2024/01/09 10:40:37;;;;;;;27.35;6.38;;;;;;;-142.57;100.00;56228.41;4975466;28;20055;-85
2024/01/09 10:43:03;;;;;;;27.77;7.90;;;;;;;-142.57;100.00;56179.91;4946612;29;20098;-83
2024/01/09 10:45:30;;;;;;;38.85;7.50;;;;;;;-142.57;100.00;56224.38;4956178;28;20399;-86
2024/01/09 10:47:58;;;;;;;19.52;7.05;;;;;;;-142.57;100.00;56175.88;4955888;29;20527;-83
2024/01/09 10:50:24;;;;;;;14.52;6.20;;;;;;;-142.57;100.00;56218.31;4937137;29;20046;-84
2024/01/09 10:52:50;;;;;;;21.05;6.20;;;;;;;-142.57;100.00;56220.34;4937398;29;20037;-84
2024/01/09 10:55:19;;;;;;;9.88;5.10;;;;;;;-142.57;100.00;56185.97;4954693;29;20039;-84